MDT,Max TemperatureF,Mean TemperatureF,Min TemperatureF,Max Dew PointF,MeanDew PointF,Min DewpointF,Max Humidity, Mean Humidity, Min Humidity, Max Sea Level PressureIn, Mean Sea Level PressureIn, Min Sea Level PressureIn, Max VisibilityMiles, Mean VisibilityMiles, Min VisibilityMiles, Max Wind SpeedMPH, Mean Wind SpeedMPH, Max Gust SpeedMPH,PrecipitationIn, CloudCover, Events, WindDirDegrees
2013-3-1,41,29,16,27,14,3,80,53,25,30.31,30.26,30.17,10,10,10,13,7,24,0.00,4,,293
2013-3-2,51,42,33,27,24,22,70,52,33,30.17,30.08,29.86,10,10,10,26,11,39,0.00,0,,278
2013-3-3,53,40,26,30,23,17,72,50,28,29.84,29.61,29.48,10,10,10,20,7,33,0.00,2,,265
2013-3-4,26,16,6,16,3,-1,76,59,41,30.27,29.87,29.65,10,8,2,35,13,58,T,4,Snow,291
2013-3-5,32,17,1,6,0,-7,86,56,25,30.37,30.33,30.24,10,10,10,15,5,22,0.00,0,,206
2013-3-6,49,29,9,19,13,3,76,49,21,30.22,29.98,29.76,10,10,10,16,5,23,0.00,0,,235
2013-3-7,53,42,30,25,21,17,72,49,26,30.06,29.91,29.74,10,10,10,17,8,23,0.00,2,,228
2013-3-8,40,33,26,25,23,20,84,69,54,30.04,29.94,29.80,10,10,9,16,6,20,0.00,3,,68
2013-3-9,36,29,21,25,17,8,88,63,38,30.10,29.88,29.70,10,9,3,24,10,43,T,6,Snow,352
2013-3-10,42,26,9,13,2,-12,76,44,12,30.22,30.11,29.92,10,10,10,15,6,25,T,0,,320
2013-3-11,40,30,20,23,15,6,69,49,29,30.11,29.94,29.87,10,9,1,21,10,33,T,4,Snow,313
2013-3-12,34,25,16,7,0,-6,56,38,20,30.29,30.24,30.11,10,10,10,22,9,33,0.00,2,,296
2013-3-13,55,40,24,24,19,3,52,39,26,30.21,30.11,30.04,10,10,10,23,10,38,0.00,2,,275
2013-3-14,61,47,33,26,23,21,64,43,22,30.19,30.06,29.91,10,10,10,22,7,29,0.00,1,,278
2013-3-15,61,48,35,26,21,16,56,37,18,29.90,29.83,29.75,10,10,10,21,7,31,0.00,1,,320
2013-3-16,38,32,25,30,28,19,100,88,75,30.00,29.91,29.84,10,3,0,10,4,23,0.34,8,Fog-Snow,168
2013-3-17,39,30,21,34,23,10,92,76,59,29.87,29.60,29.39,10,4,0,25,9,33,T,7,Fog-Snow,260
2013-3-18,29,22,15,14,7,-4,71,49,26,30.00,29.88,29.67,10,10,9,24,10,48,T,3,Snow,295
2013-3-19,33,21,9,15,8,2,84,56,28,30.40,30.19,29.98,10,10,9,22,8,40,T,2,,285
2013-3-20,39,23,6,17,9,1,73,47,21,30.38,30.09,29.75,10,10,10,14,6,20,0.00,2,,182
2013-3-21,40,30,19,25,20,13,85,67,48,29.78,29.65,29.54,10,6,1,15,5,22,0.06,6,Snow,52
2013-3-22,33,24,14,23,17,11,96,75,54,30.04,29.83,29.71,10,6,0,14,6,20,0.31,6,Fog-Snow,1
2013-3-23,26,14,2,15,5,0,92,64,36,30.28,30.14,29.91,10,10,10,13,4,23,T,1,,317
2013-3-24,17,10,3,2,-1,-5,83,65,46,30.35,30.24,30.16,10,10,10,16,8,26,0.00,4,,326
2013-3-25,31,13,-5,13,3,-9,79,56,33,30.40,30.32,30.23,10,10,10,16,5,22,0.00,1,,224
2013-3-26,42,26,10,13,6,2,73,46,19,30.21,30.07,29.97,10,10,10,22,6,26,0.00,1,,287
2013-3-27,49,34,18,18,10,4,62,40,17,30.12,30.08,30.04,10,10,10,15,5,22,T,1,,307
2013-3-28,53,40,26,29,24,18,92,62,31,30.12,30.07,30.02,10,10,10,16,5,22,T,3,,333
2013-3-29,58,43,27,29,24,18,78,50,22,30.13,30.03,29.96,10,10,10,20,5,29,0.00,3,,298
2013-3-30,49,38,26,35,28,22,84,59,34,30.13,30.05,29.99,10,10,9,22,7,32,0.03,5,Rain,297
2013-3-31,52,37,22,26,21,16,85,60,34,30.14,30.04,29.92,10,10,10,26,9,43,0.00,2,,274